CDT,Max TemperatureF,Mean TemperatureF,Min TemperatureF,Max Dew PointF,MeanDew PointF,Min DewpointF,Max Humidity, Mean Humidity, Min Humidity, Max Sea Level PressureIn, Mean Sea Level PressureIn, Min Sea Level PressureIn, Max VisibilityMiles, Mean VisibilityMiles, Min VisibilityMiles, Max Wind SpeedMPH, Mean Wind SpeedMPH, Max Gust SpeedMPH,PrecipitationIn, CloudCover, Events, WindDirDegrees
2013-3-1,31,29,26,25,22,19,81,75,69,30.32,30.25,30.18,10,9,5,17,10,21,T,8,Snow,325
2013-3-2,36,29,22,21,20,18,92,72,52,30.38,30.32,30.22,10,10,8,15,8,,0.00,4,,355
2013-3-3,60,43,25,30,26,20,75,54,33,30.22,29.99,29.75,10,10,9,18,10,23,0.00,1,,163
2013-3-4,68,55,41,44,35,29,71,53,34,29.93,29.69,29.59,10,10,10,21,9,74,0.00,2,,117
2013-3-5,43,36,28,34,25,19,92,68,43,30.37,30.20,29.99,10,9,4,28,17,34,0.06,3,Rain,314
2013-3-6,45,32,19,25,21,17,84,64,43,30.45,30.37,30.28,10,10,10,17,6,22,0.00,0,,21
2013-3-7,65,49,32,28,24,20,75,47,19,30.28,30.21,30.10,10,10,10,17,9,25,0.00,0,,138
2013-3-8,65,54,42,43,35,29,67,52,36,30.21,30.14,30.01,10,10,7,21,11,25,0.03,4,Rain,142
2013-3-9,69,60,50,57,50,37,93,71,49,30.01,29.77,29.65,10,8,2,31,15,37,0.68,8,Rain-Thunderstorm,170
2013-3-10,56,43,29,52,37,25,100,92,83,29.97,29.81,29.63,10,8,2,28,13,28,0.22,8,Rain,262
2013-3-11,44,35,26,27,23,20,85,62,39,30.06,29.99,29.94,10,10,7,20,11,25,0.00,4,,285
2013-3-12,54,41,28,30,25,19,78,57,35,30.36,30.21,30.06,10,10,10,25,8,33,0.00,2,,299
2013-3-13,48,36,23,22,20,18,81,56,31,30.51,30.43,30.36,10,10,10,10,2,22,0.00,0,,39
2013-3-14,72,54,35,41,31,19,66,49,31,30.34,30.19,30.09,10,10,10,31,12,39,0.00,0,,195
2013-3-15,79,64,48,46,44,39,68,49,29,30.08,29.90,29.73,10,10,9,24,15,31,0.00,0,,207
2013-3-16,67,54,40,45,40,35,71,58,44,29.93,29.85,29.72,10,9,8,20,14,84,0.01,2,,33
2013-3-17,43,40,37,41,38,35,100,93,85,29.94,29.84,29.70,10,6,1,20,10,30,0.17,8,Rain-Thunderstorm,67
2013-3-18,56,47,37,41,36,25,100,65,30,30.07,29.85,29.70,10,6,0,21,9,26,0.03,5,Fog-Rain,305
2013-3-19,51,40,29,32,24,13,82,54,25,30.28,30.19,30.07,10,10,10,17,6,22,0.00,3,,66
2013-3-20,45,36,27,31,20,11,100,64,28,30.41,30.29,30.14,10,9,2,21,8,26,0.00,1,,347
2013-3-21,40,35,30,30,22,10,89,60,30,30.12,29.93,29.84,10,8,0,20,11,31,0.13,7,Rain-Snow,98
2013-3-22,41,37,32,36,32,30,92,86,79,29.97,29.92,29.86,10,9,3,8,7,,0.00,8,,68
2013-3-23,40,38,36,39,36,34,100,93,85,29.97,29.85,29.74,7,3,1,14,7,20,0.06,8,Rain,54
2013-3-24,37,31,24,36,28,20,100,85,69,30.15,29.88,29.68,10,4,0,29,15,37,0.27,8,Fog-Rain-Snow,322
2013-3-25,33,28,22,23,21,16,81,72,63,30.38,30.25,30.14,10,10,6,22,12,28,T,5,Snow,297
2013-3-26,43,32,20,25,22,19,96,71,45,30.46,30.39,30.33,10,10,9,13,5,20,0.00,0,,300
2013-3-27,61,45,28,30,24,21,75,49,22,30.33,30.25,30.16,10,10,10,20,9,24,0.00,2,,137
2013-3-28,70,58,45,47,39,30,67,54,40,30.19,30.15,30.09,10,10,8,18,8,23,T,3,,170
2013-3-29,68,60,52,54,51,45,100,78,55,30.19,30.14,30.09,10,9,2,13,6,78,0.33,7,Rain,103
2013-3-30,70,61,52,56,52,46,100,80,59,30.08,29.96,29.85,10,8,2,22,10,25,0.65,6,Rain-Thunderstorm,176
2013-3-31,66,56,45,52,46,39,100,69,37,29.99,29.94,29.88,10,6,0,26,4,33,0.06,2,Fog-Rain,331